Historique des stations

Station météo de Romilly-sur-Aigre

Altitude de la station : 111 m







Données météorologiques pour le 28/09/2021
Date
Heure
Températures Humidité Point de rosée Vitesse
du vent
Direction Rafales Windchill Pression Pluviométrie
Cumul
Date
Heure
Températures Humidité Point de rosée Vitesse
du vent
Direction Rafales Windchill Pression Pluviométrie
Cumul
28/09/2021 18:5616.9 °C70 %11.4 °C8 km/hSO11 km/h11.41018 hPa0.0 mm
28/09/2021 18:4117.2 °C67 %11.0 °C6 km/hSSO16 km/h11.01018 hPa0.0 mm
28/09/2021 18:2617.4 °C67 %11.2 °C11 km/hSSO15 km/h11.21018 hPa0.0 mm
28/09/2021 18:1117.9 °C66 %11.4 °C11 km/hSSO16 km/h11.41018 hPa0.0 mm
28/09/2021 17:5618.4 °C63 %11.2 °C11 km/hS16 km/h11.21018 hPa0.0 mm
28/09/2021 17:4118.6 °C64 %11.7 °C15 km/hSSO18 km/h11.71018 hPa0.0 mm
28/09/2021 17:2618.7 °C62 %11.2 °C8 km/hSSO19 km/h11.21018 hPa0.0 mm
28/09/2021 17:1118.8 °C64 %11.8 °C16 km/hSSO19 km/h11.81019 hPa0.0 mm
28/09/2021 16:5618.8 °C64 %11.9 °C15 km/hSSO19 km/h11.91019 hPa0.0 mm
28/09/2021 16:4118.7 °C63 %11.5 °C13 km/hS16 km/h11.51019 hPa0.0 mm
28/09/2021 16:2618.9 °C65 %12.2 °C8 km/hSO18 km/h12.21019 hPa0.0 mm
28/09/2021 16:1118.8 °C67 %12.5 °C6 km/hSO16 km/h12.51019 hPa0.0 mm
28/09/2021 15:5618.7 °C66 %12.2 °C5 km/hSSO19 km/h12.21019 hPa0.0 mm
28/09/2021 15:4118.8 °C66 %12.3 °C11 km/hSSO16 km/h12.31019 hPa0.0 mm
28/09/2021 15:2618.6 °C67 %12.3 °C6 km/hOSO16 km/h12.31020 hPa0.0 mm
28/09/2021 15:1118.3 °C66 %11.9 °C10 km/hS19 km/h11.91020 hPa0.0 mm
28/09/2021 14:5618.1 °C69 %12.3 °C10 km/hS18 km/h12.31020 hPa0.0 mm
28/09/2021 14:4118.1 °C67 %11.8 °C11 km/hSO18 km/h11.81020 hPa0.0 mm
28/09/2021 14:2617.6 °C72 %12.5 °C18 km/hSSO18 km/h12.51021 hPa0.0 mm
28/09/2021 14:1117.2 °C72 %12.1 °C11 km/hSO18 km/h12.11021 hPa0.0 mm
28/09/2021 13:5617.2 °C71 %11.9 °C6 km/hSO21 km/h11.91021 hPa0.0 mm
28/09/2021 13:4117.1 °C75 %12.6 °C10 km/hSSO16 km/h12.61021 hPa0.0 mm
28/09/2021 13:2616.8 °C76 %12.6 °C6 km/hSSO18 km/h12.61021 hPa0.0 mm
28/09/2021 13:1116.7 °C77 %12.6 °C3 km/hSSO18 km/h12.61022 hPa0.0 mm
28/09/2021 12:5616.7 °C76 %12.4 °C10 km/hS16 km/h12.41022 hPa0.0 mm
28/09/2021 12:4116.8 °C79 %13.2 °C8 km/hSSO15 km/h13.21022 hPa0.0 mm
28/09/2021 12:2616.4 °C80 %13.0 °C5 km/hSSO15 km/h13.01022 hPa0.0 mm
28/09/2021 12:1116.3 °C82 %13.2 °C8 km/hSSO13 km/h13.21022 hPa0.0 mm
28/09/2021 11:5615.8 °C84 %13.1 °C10 km/hSO15 km/h13.11022 hPa0.0 mm
28/09/2021 11:4115.2 °C85 %12.7 °C11 km/hSSO13 km/h12.71022 hPa0.0 mm
28/09/2021 11:2614.8 °C87 %12.7 °C8 km/hS10 km/h12.71022 hPa0.0 mm
28/09/2021 11:1114.7 °C87 %12.5 °C6 km/hS11 km/h12.51022 hPa0.0 mm
28/09/2021 10:5614.1 °C91 %12.6 °C5 km/hSSO10 km/h12.61022 hPa0.0 mm
28/09/2021 10:4113.4 °C94 %12.4 °C5 km/hS8 km/h12.41022 hPa0.0 mm
28/09/2021 10:2612.7 °C96 %12.1 °C5 km/hSO11 km/h12.11023 hPa0.0 mm
28/09/2021 10:1112.1 °C97 %11.6 °C5 km/hSSO11 km/h11.61023 hPa0.0 mm
28/09/2021 09:5611.3 °C98 %11.0 °C5 km/hSSO10 km/h11.01023 hPa1.2 mm
28/09/2021 09:4110.6 °C98 %10.3 °C8 km/hSSO8 km/h10.31023 hPa1.2 mm
28/09/2021 09:269.4 °C98 %9.1 °C3 km/hSO5 km/h9.11022 hPa1.2 mm
28/09/2021 09:117.8 °C97 %7.4 °C6 km/hSO6 km/h7.41023 hPa1.2 mm
28/09/2021 08:566.3 °C96 %5.7 °C3 km/hSO8 km/h5.71023 hPa1.2 mm
28/09/2021 08:416.0 °C96 %5.4 °C---5.41022 hPa1.2 mm
28/09/2021 08:265.8 °C96 %5.2 °C-SSO3 km/h5.21022 hPa1.2 mm
28/09/2021 08:115.8 °C96 %5.2 °C---5.21022 hPa1.2 mm
28/09/2021 07:565.7 °C96 %5.1 °C-SSO2 km/h5.11023 hPa1.2 mm
28/09/2021 07:415.8 °C96 %5.2 °C-SSO3 km/h5.21023 hPa1.0 mm
28/09/2021 07:265.7 °C95 %5.0 °C-SSO3 km/h5.01022 hPa1.0 mm
28/09/2021 07:116.0 °C95 %5.3 °C-SSO3 km/h5.31023 hPa1.0 mm
28/09/2021 06:566.4 °C95 %5.7 °C---5.71023 hPa1.0 mm
28/09/2021 06:416.5 °C96 %5.9 °C---5.91023 hPa1.0 mm
28/09/2021 06:266.6 °C96 %6.0 °C---6.01023 hPa1.0 mm
28/09/2021 06:116.3 °C96 %5.7 °C-OSO2 km/h5.71022 hPa1.0 mm
28/09/2021 05:566.3 °C95 %5.6 °C3 km/hOSO3 km/h5.61022 hPa1.0 mm
28/09/2021 05:416.7 °C95 %5.9 °C---5.91023 hPa1.0 mm
28/09/2021 05:266.6 °C95 %5.9 °C2 km/hOSO5 km/h5.91023 hPa1.0 mm
28/09/2021 05:116.6 °C95 %5.9 °C2 km/hO5 km/h5.91023 hPa1.0 mm
28/09/2021 04:566.7 °C95 %6.0 °C-S3 km/h6.01023 hPa1.0 mm
28/09/2021 04:417.1 °C95 %6.3 °C---6.31023 hPa1.0 mm
28/09/2021 04:267.3 °C94 %6.4 °C-S2 km/h6.41023 hPa1.0 mm
28/09/2021 04:117.8 °C96 %7.2 °C3 km/hS5 km/h7.21023 hPa1.0 mm
28/09/2021 03:567.7 °C95 %7.0 °C-SSO3 km/h7.01023 hPa1.0 mm
28/09/2021 03:417.6 °C96 %7.0 °C3 km/hSSO5 km/h7.01023 hPa1.0 mm
28/09/2021 03:267.4 °C95 %6.7 °C-OSO5 km/h6.71023 hPa1.0 mm
28/09/2021 03:117.6 °C95 %6.9 °C5 km/hOSO6 km/h6.91023 hPa1.0 mm
28/09/2021 02:567.8 °C96 %7.2 °C3 km/hSO3 km/h7.21023 hPa1.0 mm
28/09/2021 02:417.6 °C95 %6.8 °C3 km/hSO5 km/h6.81023 hPa1.0 mm
28/09/2021 02:267.8 °C95 %7.0 °C3 km/hSO6 km/h7.01023 hPa1.0 mm
28/09/2021 02:118.1 °C95 %7.3 °C3 km/hOSO6 km/h7.31023 hPa1.0 mm
28/09/2021 01:568.1 °C95 %7.3 °C3 km/hOSO5 km/h7.31023 hPa1.0 mm
28/09/2021 01:417.9 °C95 %7.2 °C3 km/hSO5 km/h7.21023 hPa1.0 mm
28/09/2021 01:268.1 °C94 %7.2 °C3 km/hSO5 km/h7.21023 hPa1.0 mm
28/09/2021 01:118.1 °C95 %7.4 °C2 km/hSO5 km/h7.41023 hPa1.0 mm
28/09/2021 00:568.3 °C95 %7.5 °C3 km/hSO8 km/h7.51023 hPa1.0 mm
28/09/2021 00:418.1 °C94 %7.2 °C2 km/hOSO5 km/h7.21023 hPa1.0 mm
28/09/2021 00:268.4 °C94 %7.5 °C3 km/hSO6 km/h7.51023 hPa1.0 mm
28/09/2021 00:118.6 °C94 %7.6 °C---7.61023 hPa1.0 mm


Minima :

Température : 5.7 °C
Humidité : 62 %
Point de rosée : 5.0 °C
Vent moyen : 2 km/h
Windchill : 5.0
Pression atm. : 1018 hPa
Maxima :

Température : 18.9 °C
Humidité : 98 %
Point de rosée : 13.2 °C
Vent moyen : 18 km/h
Windchill : 13.2
Pression atm. : 1023 hPa
Rafales max : 21 km/h
Cumul de pluie sur 24H : 1.2 mm

Romilly-sur-Aigre est une commune du département Eure-et-Loir (28).
La station météorologique du réseau de l'association la plus proche de Romilly-sur-Aigre est celle de Mainvilliers
Site du propriétaire de la station : http://www.sohade.fr



Icône Facebook Association Météo Centre Icône Twitter Association Météo Centre Icône Chaîne Youtube Association Météo Centre Icône contact Association Météo Centre Icône Insta Association Météo Centre